createdAt,value
2019-04-03T00:01:49.528Z,4.90
2019-04-03T00:04:20.061Z,1.07
2019-04-03T00:06:50.532Z,1.73
2019-04-03T00:09:20.914Z,1.33
2019-04-03T00:11:51.456Z,3.30
2019-04-03T00:14:22.041Z,2.83
2019-04-03T00:16:52.503Z,1.60
2019-04-03T00:19:22.892Z,2.17
2019-04-03T00:21:53.356Z,1.30
2019-04-03T00:24:23.655Z,1.33
2019-04-03T00:26:54.097Z,1.07
2019-04-03T00:29:24.534Z,3.13
2019-04-03T00:31:54.945Z,4.37
2019-04-03T00:34:25.391Z,1.53
2019-04-03T00:36:55.917Z,3.20
2019-04-03T00:39:26.421Z,2.20
2019-04-03T00:41:56.874Z,3.13
2019-04-03T00:44:27.313Z,1.53
2019-04-03T00:46:57.798Z,1.40
2019-04-03T00:49:28.429Z,0.73
2019-04-03T00:51:58.995Z,0.80
2019-04-03T00:54:30.905Z,1.47
2019-04-03T00:57:01.563Z,0.90
2019-04-03T00:59:32.006Z,1.47
2019-04-03T01:02:02.437Z,1.93
2019-04-03T01:04:32.953Z,2.33
2019-04-03T01:07:03.469Z,3.97
2019-04-03T01:09:34.046Z,1.27
2019-04-03T01:12:04.791Z,1.10
2019-04-03T01:14:35.273Z,0.87
2019-04-03T01:17:05.821Z,2.80
2019-04-03T01:19:36.918Z,0.73
2019-04-03T01:22:08.072Z,1.67
2019-04-03T01:24:39.076Z,0.90
2019-04-03T01:27:11.166Z,4.03
2019-04-03T01:29:42.950Z,0.93
2019-04-03T01:32:15.402Z,1.33
2019-04-03T01:34:47.731Z,2.27
2019-04-03T01:37:19.178Z,3.73
2019-04-03T01:39:50.819Z,2.33
2019-04-03T01:42:22.408Z,1.50
2019-04-03T01:44:55.122Z,0.80
2019-04-03T01:47:27.512Z,2.33
2019-04-03T01:49:58.534Z,1.33
2019-04-03T01:52:31.299Z,3.53
2019-04-03T01:55:03.402Z,2.00
2019-04-03T01:57:36.259Z,3.13
2019-04-03T02:00:07.507Z,4.07
2019-04-03T02:02:38.661Z,1.90
2019-04-03T02:05:12.010Z,4.30
2019-04-03T02:07:44.227Z,3.67
2019-04-03T02:10:18.393Z,4.27
2019-04-03T02:12:50.823Z,3.53
2019-04-03T02:15:21.678Z,2.33
2019-04-03T02:17:54.159Z,1.13
2019-04-03T02:20:26.514Z,5.20
2019-04-03T02:23:00.393Z,2.20
2019-04-03T02:25:31.864Z,2.67
2019-04-03T02:28:03.850Z,3.80
2019-04-03T02:30:34.166Z,2.10
2019-04-03T02:33:04.610Z,1.23
2019-04-03T02:35:38.755Z,3.13
2019-04-03T02:38:07.511Z,4.93
2019-04-03T02:40:38.160Z,3.60
2019-04-03T02:43:13.453Z,4.83
2019-04-03T02:45:41.954Z,3.00
2019-04-03T02:48:12.769Z,4.20
2019-04-03T02:50:46.556Z,3.67
2019-04-03T02:53:16.333Z,2.30
2019-04-03T02:55:47.870Z,2.80
2019-04-03T02:58:21.255Z,2.73
2019-04-03T03:00:51.466Z,2.43
2019-04-03T03:03:22.459Z,3.17
2019-04-03T03:05:53.189Z,3.10
2019-04-03T03:08:23.870Z,3.30
2019-04-03T03:10:55.055Z,1.73
2019-04-03T03:13:26.158Z,3.93
2019-04-03T03:15:56.889Z,5.47
2019-04-03T03:18:28.535Z,4.03
2019-04-03T03:20:59.811Z,3.23
2019-04-03T03:23:30.518Z,1.83
2019-04-03T03:26:04.173Z,3.90
2019-04-03T03:28:35.069Z,2.30
2019-04-03T03:31:07.874Z,1.83
2019-04-03T03:33:41.571Z,2.83
2019-04-03T03:36:19.567Z,6.10
2019-04-03T03:38:46.199Z,4.87
2019-04-03T03:41:22.125Z,6.20
2019-04-03T03:43:49.674Z,4.50
2019-04-03T03:46:20.816Z,2.70
2019-04-03T03:48:53.011Z,2.50
2019-04-03T03:51:24.299Z,2.83
2019-04-03T03:53:55.636Z,4.67
2019-04-03T03:56:26.419Z,3.73
2019-04-03T03:58:59.081Z,4.67
2019-04-03T04:01:31.481Z,6.60
2019-04-03T04:04:02.762Z,4.83
2019-04-03T04:06:35.910Z,9.57
2019-04-03T04:09:08.327Z,3.20
2019-04-03T04:11:38.837Z,4.23
2019-04-03T04:14:11.254Z,5.63
2019-04-03T04:16:42.011Z,6.73
2019-04-03T04:19:12.499Z,3.87
2019-04-03T04:21:45.065Z,4.17
2019-04-03T04:24:15.721Z,5.73
2019-04-03T04:26:46.231Z,5.20
2019-04-03T04:29:17.921Z,4.50
2019-04-03T04:31:48.337Z,5.50
2019-04-03T04:34:19.549Z,5.07
2019-04-03T04:36:50.122Z,5.07
2019-04-03T04:39:20.539Z,3.10
2019-04-03T04:41:51.439Z,2.17
2019-04-03T04:44:21.767Z,5.37
2019-04-03T04:46:52.246Z,7.43
2019-04-03T04:49:23.263Z,6.50
2019-04-03T04:51:56.511Z,8.13
2019-04-03T04:54:26.171Z,5.77
2019-04-03T04:56:56.596Z,7.13
2019-04-03T04:59:27.025Z,3.73
2019-04-03T05:01:57.541Z,2.23
2019-04-03T05:04:27.974Z,4.10
2019-04-03T05:07:00.145Z,4.37
2019-04-03T05:09:30.690Z,3.87
2019-04-03T05:12:01.182Z,4.37
2019-04-03T05:14:31.597Z,1.90
2019-04-03T05:17:02.079Z,3.10
2019-04-03T05:19:32.518Z,7.03
2019-04-03T05:22:02.918Z,5.67
2019-04-03T05:24:33.368Z,4.60
2019-04-03T05:27:07.111Z,4.77
2019-04-03T05:29:36.450Z,3.73
2019-04-03T05:32:09.932Z,2.00
2019-04-03T05:34:39.057Z,2.77
2019-04-03T05:37:11.676Z,2.70
2019-04-03T05:39:41.946Z,1.47
2019-04-03T05:42:13.554Z,6.77
2019-04-03T05:44:44.029Z,4.67
2019-04-03T05:47:14.963Z,1.73
2019-04-03T05:49:46.988Z,2.17
2019-04-03T05:52:18.624Z,2.83
2019-04-03T05:54:49.231Z,4.30
2019-04-03T05:57:19.763Z,3.13
2019-04-03T06:00:00.097Z,5.23
2019-04-03T06:02:23.556Z,3.97
2019-04-03T06:04:54.068Z,2.37
2019-04-03T06:07:24.853Z,1.43
2019-04-03T06:09:58.389Z,6.00
2019-04-03T06:12:28.558Z,3.53
2019-04-03T06:14:59.087Z,1.90
2019-04-03T06:17:29.524Z,5.33
2019-04-03T06:20:00.010Z,1.97
2019-04-03T06:22:30.792Z,5.63
2019-04-03T06:25:01.333Z,2.97
2019-04-03T06:27:31.775Z,2.10
2019-04-03T06:30:02.156Z,2.60
2019-04-03T06:32:32.573Z,3.90
2019-04-03T06:35:03.123Z,3.67
2019-04-03T06:37:35.865Z,3.30
2019-04-03T06:40:07.383Z,2.30
2019-04-03T06:42:38.135Z,3.57
2019-04-03T06:45:08.798Z,3.70
2019-04-03T06:47:39.141Z,3.53
2019-04-03T06:50:12.529Z,3.90
2019-04-03T06:52:43.461Z,3.07
2019-04-03T06:55:14.110Z,3.27
2019-04-03T06:57:44.571Z,5.17
2019-04-03T07:00:15.222Z,4.43
2019-04-03T07:02:45.700Z,5.10
2019-04-03T07:05:16.114Z,4.00
2019-04-03T07:07:46.538Z,3.17
2019-04-03T07:10:24.794Z,4.47
2019-04-03T07:12:49.365Z,3.17
2019-04-03T07:15:19.937Z,5.40
2019-04-03T07:17:50.409Z,2.27
2019-04-03T07:20:20.968Z,3.40
2019-04-03T07:22:51.923Z,3.20
2019-04-03T07:25:22.560Z,6.47
2019-04-03T07:27:53.069Z,1.47
2019-04-03T07:30:23.624Z,4.53
2019-04-03T07:32:57.036Z,3.37
2019-04-03T07:35:26.146Z,4.37
2019-04-03T07:37:56.884Z,4.00
2019-04-03T07:40:27.635Z,3.07
2019-04-03T07:42:58.590Z,2.70
2019-04-03T07:45:29.116Z,3.47
2019-04-03T07:47:59.514Z,3.73
2019-04-03T07:50:29.953Z,2.40
2019-04-03T07:53:00.560Z,2.97
2019-04-03T07:55:31.231Z,3.63
2019-04-03T07:58:01.982Z,1.33
2019-04-03T08:00:32.381Z,5.63
2019-04-03T08:03:02.827Z,4.77
2019-04-03T08:05:33.251Z,4.03
2019-04-03T08:08:03.701Z,2.67
2019-04-03T08:10:37.119Z,2.17
2019-04-03T08:13:07.537Z,2.43
2019-04-03T08:15:38.133Z,1.83
2019-04-03T08:18:08.529Z,7.47
2019-04-03T08:20:38.973Z,1.50
2019-04-03T08:23:09.565Z,4.23
2019-04-03T08:25:42.359Z,5.93
2019-04-03T08:28:12.106Z,3.97
2019-04-03T08:30:42.522Z,3.23
2019-04-03T08:33:17.447Z,2.07
2019-04-03T08:35:45.371Z,2.87
2019-04-03T08:38:16.022Z,1.43
2019-04-03T08:40:46.455Z,3.00
2019-04-03T08:43:16.910Z,1.80
2019-04-03T08:45:47.427Z,2.07
2019-04-03T08:48:18.266Z,3.07
2019-04-03T08:50:49.214Z,3.47
2019-04-03T08:53:20.060Z,1.37
2019-04-03T08:55:50.796Z,1.30
2019-04-03T08:58:25.390Z,1.63
2019-04-03T09:00:54.374Z,0.80
2019-04-03T09:03:24.987Z,2.40
2019-04-03T09:05:55.851Z,1.90
2019-04-03T09:08:27.133Z,1.90
2019-04-03T09:10:57.858Z,0.77
2019-04-03T09:13:28.276Z,1.60
2019-04-03T09:16:00.215Z,0.87
2019-04-03T09:18:31.030Z,2.43
2019-04-03T09:21:01.552Z,1.20
2019-04-03T09:23:32.032Z,1.27
2019-04-03T09:26:03.795Z,0.80
2019-04-03T09:28:34.425Z,1.73
2019-04-03T09:31:05.131Z,4.80
2019-04-03T09:33:35.952Z,5.37
2019-04-03T09:36:06.539Z,1.55
2019-04-03T09:38:37.507Z,3.98
2019-04-03T09:41:08.080Z,1.72
2019-04-03T09:43:39.663Z,0.57
2019-04-03T09:46:10.574Z,0.82
2019-04-03T09:48:40.913Z,1.05
2019-04-03T09:51:11.324Z,1.17
2019-04-03T09:53:42.109Z,1.40
2019-04-03T09:56:12.727Z,0.93
2019-04-03T09:58:43.135Z,1.92
2019-04-03T10:01:18.008Z,1.75
2019-04-03T10:03:46.789Z,1.42
2019-04-03T10:06:17.625Z,1.75
2019-04-03T10:08:48.365Z,1.25
2019-04-03T10:11:20.413Z,4.15
2019-04-03T10:13:51.046Z,1.42
2019-04-03T10:16:21.448Z,1.65
2019-04-03T10:18:51.872Z,1.25
2019-04-03T10:21:22.400Z,2.45
2019-04-03T10:23:52.757Z,1.15
2019-04-03T10:26:23.209Z,0.88
2019-04-03T10:28:53.792Z,1.57
2019-04-03T10:31:24.728Z,1.77
2019-04-03T10:33:55.369Z,3.90
2019-04-03T10:36:25.582Z,0.88
2019-04-03T10:38:56.056Z,0.95
2019-04-03T10:41:28.401Z,3.27
2019-04-03T10:43:59.252Z,1.30
2019-04-03T10:46:29.838Z,2.40
2019-04-03T10:49:01.254Z,1.87
2019-04-03T10:51:31.874Z,0.95
2019-04-03T10:54:02.962Z,3.12
2019-04-03T10:56:35.070Z,2.60
2019-04-03T10:59:11.519Z,1.57
2019-04-03T11:01:38.266Z,1.00
2019-04-03T11:04:08.846Z,1.27
2019-04-03T11:06:39.229Z,0.93
2019-04-03T11:09:10.618Z,2.37
2019-04-03T11:11:43.471Z,0.90
2019-04-03T11:14:13.557Z,0.20
2019-04-03T11:16:46.489Z,1.77
2019-04-03T11:19:16.063Z,0.77
2019-04-03T11:21:46.475Z,0.90
2019-04-03T11:24:16.980Z,0.57
2019-04-03T11:26:50.816Z,1.00
2019-04-03T11:29:19.825Z,0.40
2019-04-03T11:31:51.070Z,6.97
2019-04-03T11:34:21.402Z,0.83
2019-04-03T11:36:52.155Z,1.43
2019-04-03T11:39:23.114Z,0.87
2019-04-03T11:41:55.584Z,0.73
2019-04-03T11:44:25.950Z,2.83
2019-04-03T11:46:56.441Z,3.50
2019-04-03T11:49:27.022Z,4.33
2019-04-03T11:52:00.478Z,1.67
2019-04-03T11:54:30.700Z,1.60
2019-04-03T11:57:01.290Z,0.63
2019-04-03T11:59:31.858Z,1.27
2019-04-03T12:02:02.446Z,0.70
2019-04-03T12:04:33.420Z,1.87
2019-04-03T12:07:03.980Z,1.60
2019-04-03T12:09:34.419Z,2.00
2019-04-03T12:12:05.497Z,2.17
2019-04-03T12:14:36.154Z,1.67
2019-04-03T12:17:06.723Z,2.33
2019-04-03T12:19:37.874Z,1.33
2019-04-03T12:22:08.970Z,2.23
2019-04-03T12:24:39.552Z,1.47
2019-04-03T12:27:09.964Z,1.45
2019-04-03T12:29:40.685Z,4.40
2019-04-03T12:32:11.637Z,1.60
2019-04-03T12:34:42.282Z,2.27
2019-04-03T12:37:12.777Z,1.30
2019-04-03T12:39:43.233Z,3.90
2019-04-03T12:42:33.136Z,1.77
2019-04-03T12:45:05.306Z,0.95
2019-04-03T12:47:36.151Z,2.40
2019-04-03T12:50:08.762Z,2.07
2019-04-03T12:52:39.736Z,2.40
2019-04-03T12:55:10.748Z,1.33
2019-04-03T12:57:41.563Z,3.37
2019-04-03T13:00:14.728Z,3.23
2019-04-03T13:02:45.124Z,2.37
2019-04-03T13:05:16.770Z,4.67
2019-04-03T13:07:47.692Z,4.00
2019-04-03T13:10:19.142Z,3.07
2019-04-03T13:12:50.281Z,2.80
2019-04-03T13:15:20.923Z,2.70
2019-04-03T13:17:51.377Z,1.40
2019-04-03T13:20:21.812Z,4.10
2019-04-03T13:22:52.229Z,3.87
2019-04-03T13:25:22.667Z,2.33
2019-04-03T13:27:52.964Z,2.55
2019-04-03T13:30:23.648Z,2.60
2019-04-03T13:32:59.543Z,2.17
2019-04-03T13:35:26.543Z,1.62
2019-04-03T13:37:57.194Z,3.33
2019-04-03T13:40:27.530Z,3.25
2019-04-03T13:42:58.113Z,3.00
2019-04-03T13:45:30.742Z,2.23
2019-04-03T13:48:01.208Z,2.17
2019-04-03T13:50:31.738Z,3.13
2019-04-03T13:53:02.590Z,3.60
2019-04-03T13:55:34.581Z,2.97
2019-04-03T13:58:05.305Z,2.03
2019-04-03T14:00:36.064Z,2.83
2019-04-03T14:03:06.990Z,3.55
2019-04-03T14:05:37.527Z,4.67
2019-04-03T14:08:08.375Z,3.15
2019-04-03T14:10:39.553Z,2.80
2019-04-03T14:13:12.203Z,2.58
2019-04-03T14:15:43.542Z,3.92
2019-04-03T14:18:14.216Z,4.17
2019-04-03T14:20:44.656Z,3.22
2019-04-03T14:23:16.107Z,1.95
2019-04-03T14:25:46.532Z,3.80
2019-04-03T14:28:17.335Z,2.65
2019-04-03T14:30:48.011Z,3.25
2019-04-03T14:33:19.674Z,2.05
2019-04-03T14:36:19.689Z,1.40
2019-04-03T14:38:50.294Z,2.63
2019-04-03T14:41:20.805Z,1.03
2019-04-03T14:43:51.253Z,2.13
2019-04-03T14:46:21.681Z,1.70
2019-04-03T14:48:52.636Z,1.67
2019-04-03T14:51:23.084Z,2.10
2019-04-03T14:53:53.693Z,4.00
2019-04-03T14:56:24.887Z,1.50
2019-04-03T14:58:57.190Z,1.70
2019-04-03T15:01:27.685Z,1.97
2019-04-03T15:04:01.138Z,4.43
2019-04-03T15:06:30.320Z,2.70
2019-04-03T15:09:01.335Z,1.43
2019-04-03T15:11:33.144Z,2.87
2019-04-03T15:14:07.449Z,2.07
2019-04-03T15:16:37.867Z,1.93
2019-04-03T15:19:08.384Z,2.00
2019-04-03T15:21:38.836Z,1.13
2019-04-03T15:24:11.470Z,1.30
2019-04-03T15:26:41.313Z,2.37
2019-04-03T15:29:12.176Z,1.57
2019-04-03T15:31:44.826Z,2.05
2019-04-03T15:34:15.002Z,1.27
2019-04-03T15:36:45.596Z,4.58
2019-04-03T15:39:16.797Z,0.78
2019-04-03T15:41:48.472Z,1.30
2019-04-03T15:44:20.989Z,2.25
2019-04-03T15:46:51.151Z,3.50
2019-04-03T15:49:21.642Z,3.05
2019-04-03T15:51:52.576Z,3.12
2019-04-03T15:54:25.606Z,1.60
2019-04-03T15:56:55.480Z,3.40
2019-04-03T15:59:28.520Z,1.52
2019-04-03T16:01:58.145Z,2.90
2019-04-03T16:04:29.042Z,2.70
2019-04-03T16:07:01.099Z,4.30
2019-04-03T16:09:31.500Z,2.30
2019-04-03T16:12:05.223Z,1.77
2019-04-03T16:14:35.193Z,3.93
2019-04-03T16:17:05.644Z,3.83
2019-04-03T16:19:36.341Z,2.97
2019-04-03T16:22:07.007Z,2.17
2019-04-03T16:24:37.445Z,2.20
2019-04-03T16:27:08.464Z,1.97
2019-04-03T16:29:40.524Z,3.67
2019-04-03T16:32:12.188Z,3.73
2019-04-03T16:34:42.764Z,1.00
2019-04-03T16:37:13.350Z,2.07
2019-04-03T16:39:43.769Z,1.77
2019-04-03T16:42:15.741Z,1.20
2019-04-03T16:44:46.529Z,1.60
2019-04-03T16:47:17.387Z,1.40
2019-04-03T16:49:48.218Z,5.83
2019-04-03T16:52:18.722Z,2.37
2019-04-03T16:54:49.622Z,3.13
2019-04-03T16:57:22.218Z,1.33
2019-04-03T16:59:53.031Z,3.83
2019-04-03T17:02:24.764Z,0.90
2019-04-03T17:04:56.294Z,2.03
2019-04-03T17:07:26.827Z,1.40
2019-04-03T17:09:58.040Z,2.10
2019-04-03T17:12:28.532Z,3.83
2019-04-03T17:14:59.328Z,1.30
2019-04-03T17:17:30.492Z,0.60
2019-04-03T17:20:01.173Z,2.10
2019-04-03T17:22:31.987Z,3.10
2019-04-03T17:25:02.570Z,0.70
2019-04-03T17:27:33.532Z,1.40
2019-04-03T17:30:04.389Z,2.93
2019-04-03T17:32:35.408Z,2.00
2019-04-03T17:35:07.774Z,3.10
2019-04-03T17:37:38.488Z,1.00
2019-04-03T17:40:10.417Z,5.90
2019-04-03T17:42:40.938Z,1.50
2019-04-03T17:45:11.576Z,1.37
2019-04-03T17:47:41.984Z,1.93
2019-04-03T17:50:12.270Z,1.77
2019-04-03T17:52:42.665Z,2.00
2019-04-03T17:55:13.541Z,1.77
2019-04-03T17:57:45.311Z,2.10
2019-04-03T18:00:17.029Z,3.57
2019-04-03T18:02:48.097Z,1.80
2019-04-03T18:05:19.324Z,2.50
2019-04-03T18:07:50.057Z,2.10
2019-04-03T18:10:20.682Z,3.40
2019-04-03T18:12:52.397Z,2.70
2019-04-03T18:15:23.442Z,2.90
2019-04-03T18:17:53.867Z,1.87
2019-04-03T18:20:24.397Z,2.73
2019-04-03T18:22:55.029Z,2.03
2019-04-03T18:25:28.528Z,7.03
2019-04-03T18:27:57.745Z,3.23
2019-04-03T18:30:28.594Z,2.30
2019-04-03T18:32:59.110Z,2.00
2019-04-03T18:35:29.520Z,4.00
2019-04-03T18:38:01.104Z,2.60
2019-04-03T18:40:31.617Z,3.23
2019-04-03T18:43:02.066Z,4.03
2019-04-03T18:45:33.068Z,5.57
2019-04-03T18:48:03.513Z,5.40
2019-04-03T18:50:35.228Z,4.40
2019-04-03T18:53:09.574Z,5.50
2019-04-03T18:55:38.464Z,5.77
2019-04-03T18:58:09.211Z,4.30
2019-04-03T19:00:40.386Z,3.27
2019-04-03T19:03:10.873Z,1.93
2019-04-03T19:05:42.814Z,1.30
2019-04-03T19:08:13.841Z,4.07
2019-04-03T19:10:44.122Z,1.90
2019-04-03T19:13:14.783Z,4.57
2019-04-03T19:15:46.306Z,3.80
2019-04-03T19:18:19.762Z,2.13
2019-04-03T19:20:48.880Z,7.33
2019-04-03T19:23:19.305Z,3.87
2019-04-03T19:25:49.729Z,3.43
2019-04-03T19:28:20.274Z,5.37
2019-04-03T19:30:51.044Z,4.03
2019-04-03T19:33:21.629Z,5.83
2019-04-03T19:35:52.114Z,5.60
2019-04-03T19:38:22.594Z,5.83
2019-04-03T19:40:53.476Z,4.40
2019-04-03T19:43:24.004Z,9.43
2019-04-03T19:45:54.449Z,4.77
2019-04-03T19:48:25.656Z,8.30
2019-04-03T19:50:56.974Z,6.73
2019-04-03T19:53:27.556Z,7.07
2019-04-03T19:55:58.091Z,4.80
2019-04-03T19:58:29.781Z,8.27
2019-04-03T20:01:02.209Z,7.77
2019-04-03T20:03:32.608Z,6.17
2019-04-03T20:06:03.179Z,3.93
2019-04-03T20:08:33.718Z,10.20
2019-04-03T20:11:05.283Z,8.30
2019-04-03T20:13:39.389Z,12.73
2019-04-03T20:16:08.489Z,7.57
2019-04-03T20:18:38.949Z,9.07
2019-04-03T20:21:09.340Z,10.97
2019-04-03T20:23:41.607Z,8.33
2019-04-03T20:26:16.348Z,8.30
2019-04-03T20:28:45.457Z,6.30
2019-04-03T20:31:16.101Z,6.33
2019-04-03T20:33:46.562Z,7.30
2019-04-03T20:36:18.512Z,10.17
2019-04-03T20:38:49.125Z,10.13
2019-04-03T20:41:19.452Z,10.60
2019-04-03T20:43:49.830Z,11.33
2019-04-03T20:46:20.302Z,8.97
2019-04-03T20:48:50.718Z,8.47
2019-04-03T20:51:21.155Z,8.97
2019-04-03T20:53:52.097Z,9.97
2019-04-03T20:56:22.649Z,5.37
2019-04-03T20:58:56.082Z,8.57
2019-04-03T21:01:25.329Z,7.80
2019-04-03T21:03:55.795Z,14.67
2019-04-03T21:06:26.177Z,13.73
2019-04-03T21:08:58.828Z,10.77
2019-04-03T21:11:28.975Z,8.40
2019-04-03T21:13:59.394Z,9.43
2019-04-03T21:16:33.408Z,8.53
2019-04-03T21:19:02.109Z,10.30
2019-04-03T21:21:32.631Z,13.40
2019-04-03T21:24:04.008Z,16.40
2019-04-03T21:26:37.653Z,7.53
2019-04-03T21:29:07.494Z,10.83
2019-04-03T21:31:38.282Z,7.47
2019-04-03T21:34:08.744Z,11.23
2019-04-03T21:36:39.402Z,9.77
2019-04-03T21:39:12.609Z,6.27
2019-04-03T21:41:42.437Z,5.57
2019-04-03T21:44:12.909Z,10.00
2019-04-03T21:46:43.473Z,7.47
2019-04-03T21:49:16.888Z,11.57
2019-04-03T21:51:47.186Z,10.13
2019-04-03T21:54:17.584Z,10.07
2019-04-03T21:56:48.017Z,11.00
2019-04-03T21:59:18.428Z,8.53
2019-04-03T22:01:49.379Z,6.47
2019-04-03T22:04:20.884Z,11.80
2019-04-03T22:06:51.939Z,10.57
2019-04-03T22:09:22.405Z,8.97
2019-04-03T22:11:52.832Z,7.13
2019-04-03T22:14:25.677Z,12.43
2019-04-03T22:16:56.151Z,9.63
2019-04-03T22:19:27.654Z,9.00
2019-04-03T22:21:58.882Z,12.03
2019-04-03T22:24:29.368Z,9.20
2019-04-03T22:26:59.797Z,6.90
2019-04-03T22:29:30.221Z,9.30
2019-04-03T22:32:00.660Z,10.73
2019-04-03T22:34:31.074Z,12.00
2019-04-03T22:37:03.851Z,6.43
2019-04-03T22:39:33.789Z,11.63
2019-04-03T22:42:05.390Z,6.60
2019-04-03T22:44:35.854Z,5.63
2019-04-03T22:47:06.283Z,6.97
2019-04-03T22:49:36.710Z,9.57
2019-04-03T22:52:08.796Z,6.33
2019-04-03T22:54:39.233Z,9.00
2019-04-03T22:57:09.629Z,9.33
2019-04-03T22:59:40.027Z,14.87
2019-04-03T23:02:10.501Z,7.83
2019-04-03T23:04:42.460Z,13.03
2019-04-03T23:07:13.136Z,9.20
2019-04-03T23:09:43.776Z,9.37
2019-04-03T23:12:14.304Z,14.10
2019-04-03T23:14:44.765Z,6.93
2019-04-03T23:17:15.466Z,9.87
2019-04-03T23:19:46.029Z,7.87
2019-04-03T23:22:16.634Z,12.70
2019-04-03T23:24:47.008Z,13.83
2019-04-03T23:27:17.429Z,6.80
2019-04-03T23:29:47.854Z,11.73
2019-04-03T23:32:19.764Z,9.17
2019-04-03T23:34:50.229Z,7.67
2019-04-03T23:37:20.775Z,10.43
2019-04-03T23:39:51.188Z,6.23
2019-04-03T23:42:21.669Z,12.67
2019-04-03T23:44:52.145Z,8.67
2019-04-03T23:47:22.578Z,5.63
2019-04-03T23:49:53.068Z,9.80
2019-04-03T23:52:23.528Z,9.90
2019-04-03T23:54:53.852Z,6.07
2019-04-03T23:57:24.263Z,4.97
2019-04-03T23:59:54.718Z,11.70
